Time;durP1;ratioP1;P1;durP2;ratioP2;P2;SDS_P1;SDS_P2;PMS_P1;PMS_P2;Temp;Humidity;BMP_temperature;BMP_pressure;BME280_temperature;BME280_humidity;BME280_pressure;Samples;Min_cycle;Max_cycle;Signal;HPM_P1;HPM_P2
2023/09/04 00:02:01;;;;;;;10.48;9.40;;;;;;;11.71;100.00;102675.63;4846086;29;20185;-66
2023/09/04 00:04:26;;;;;;;10.68;9.68;;;;;;;11.64;100.00;102673.78;4845946;29;20101;-66
2023/09/04 00:06:53;;;;;;;8.55;7.65;;;;;;;11.70;100.00;102669.50;4845792;29;20037;-66
2023/09/04 00:09:18;;;;;;;7.15;6.47;;;;;;;11.64;100.00;102665.91;4858917;29;20041;-66
2023/09/04 00:11:44;;;;;;;7.97;7.18;;;;;;;11.57;100.00;102663.19;4858498;29;20060;-66
2023/09/04 00:14:09;;;;;;;13.00;11.80;;;;;;;11.58;100.00;102664.09;4844350;29;20057;-66
2023/09/04 00:16:34;;;;;;;9.50;8.60;;;;;;;11.53;100.00;102665.78;4861298;29;20140;-66
2023/09/04 00:19:00;;;;;;;10.55;9.55;;;;;;;11.51;100.00;102657.88;4845958;29;20025;-66
2023/09/04 00:21:25;;;;;;;6.72;6.03;;;;;;;11.41;100.00;102651.63;4845462;29;20393;-66
2023/09/04 00:23:51;;;;;;;7.78;7.07;;;;;;;11.49;100.00;102653.47;4861204;29;20029;-66
2023/09/04 00:26:16;;;;;;;9.00;7.88;;;;;;;11.31;100.00;102660.22;4844735;29;20486;-66
2023/09/04 00:28:42;;;;;;;8.40;7.53;;;;;;;11.33;100.00;102658.50;4857514;29;20041;-66
2023/09/04 00:31:07;;;;;;;9.65;8.80;;;;;;;11.38;100.00;102651.56;4860931;29;20040;-68
2023/09/04 00:33:33;;;;;;;10.95;9.85;;;;;;;11.37;100.00;102659.44;4843031;29;20099;-68
2023/09/04 00:35:58;;;;;;;10.45;9.48;;;;;;;11.08;100.00;102657.25;4861301;29;20421;-68
2023/09/04 00:38:23;;;;;;;9.02;8.23;;;;;;;11.22;100.00;102657.44;4854370;29;20033;-68
2023/09/04 00:40:49;;;;;;;10.38;9.40;;;;;;;11.16;100.00;102660.00;4862381;29;20052;-69
2023/09/04 00:43:14;;;;;;;10.85;9.85;;;;;;;11.21;100.00;102653.09;4845979;29;20378;-68
2023/09/04 00:45:43;;;;;;;13.18;11.85;;;;;;;11.38;100.00;102659.44;4875968;29;20108;-68
2023/09/04 00:48:10;;;;;;;11.88;10.77;;;;;;;11.36;100.00;102668.16;4866980;29;20025;-68
2023/09/04 00:50:36;;;;;;;10.13;9.23;;;;;;;11.08;100.00;102671.25;4849586;29;20532;-68
2023/09/04 00:53:06;;;;;;;13.40;12.10;;;;;;;11.35;100.00;102671.63;4842964;29;20061;-68
2023/09/04 00:55:34;;;;;;;12.35;10.98;;;;;;;11.18;100.00;102667.03;4871675;29;20418;-68
2023/09/04 00:58:00;;;;;;;14.25;12.85;;;;;;;11.29;100.00;102661.94;4857855;29;20069;-68
2023/09/04 01:00:27;;;;;;;10.98;9.95;;;;;;;11.25;100.00;102657.53;4856322;29;20061;-68
2023/09/04 01:02:54;;;;;;;10.20;9.30;;;;;;;11.17;100.00;102661.78;4845583;29;20108;-68
2023/09/04 01:05:20;;;;;;;9.63;8.70;;;;;;;11.11;100.00;102664.31;4858486;29;20040;-68
2023/09/04 01:07:47;;;;;;;10.18;9.18;;;;;;;11.14;100.00;102664.34;4835819;29;20061;-68
2023/09/04 01:10:13;;;;;;;7.88;7.07;;;;;;;11.02;100.00;102672.88;4858419;29;20093;-68
2023/09/04 01:13:07;;;;;;;13.30;9.18;;;;;;;11.12;100.00;102673.91;4845474;29;20030;-68
2023/09/04 01:15:33;;;;;;;10.52;9.50;;;;;;;10.98;100.00;102663.22;4874050;29;20025;-68
2023/09/04 01:17:59;;;;;;;8.43;7.63;;;;;;;10.96;100.00;102663.22;4844674;29;20395;-68
2023/09/04 01:20:28;;;;;;;14.55;13.02;;;;;;;11.13;100.00;102654.69;4860659;29;20072;-68
2023/09/04 01:22:55;;;;;;;12.40;11.10;;;;;;;11.08;100.00;102662.50;4861926;29;20442;-68
2023/09/04 01:25:22;;;;;;;12.68;10.40;;;;;;;11.10;100.00;102658.16;4859702;29;20052;-68
2023/09/04 01:28:14;;;;;;;8.88;7.50;;;;;;;10.99;100.00;102663.25;4879118;29;20021;-68
2023/09/04 01:31:15;;;;;;;9.10;8.30;;;;;;;10.85;100.00;102665.66;4862935;29;20096;-68
2023/09/04 01:33:47;;;;;;;7.35;6.65;;;;;;;10.72;100.00;102663.69;4862497;29;20040;-68
2023/09/04 01:36:16;;;;;;;9.13;6.22;;;;;;;10.72;100.00;102667.19;4879200;29;20041;-68
2023/09/04 01:38:45;;;;;;;7.75;6.93;;;;;;;10.64;100.00;102655.66;4874880;29;20151;-68
2023/09/04 01:41:11;;;;;;;5.43;4.90;;;;;;;10.68;100.00;102661.88;4863881;29;20025;-68
2023/09/04 01:43:36;;;;;;;6.07;5.15;;;;;;;10.53;100.00;102657.22;4878839;29;20080;-68
2023/09/04 01:46:03;;;;;;;6.10;5.50;;;;;;;10.50;100.00;102651.94;4848449;29;20124;-68
2023/09/04 01:48:29;;;;;;;7.90;7.10;;;;;;;10.57;100.00;102654.72;4848456;29;20434;-68
2023/09/04 01:50:54;;;;;;;10.32;9.43;;;;;;;10.62;100.00;102646.91;4829447;29;20073;-68
2023/09/04 01:53:20;;;;;;;9.80;8.80;;;;;;;10.59;100.00;102644.25;4855997;29;20033;-68
2023/09/04 01:55:46;;;;;;;12.07;10.98;;;;;;;10.68;100.00;102639.16;4863495;29;20036;-68
2023/09/04 01:58:11;;;;;;;9.63;8.60;;;;;;;10.57;100.00;102644.22;4877813;29;20037;-68
2023/09/04 02:00:37;;;;;;;10.35;9.25;;;;;;;10.49;100.00;102648.44;4858525;29;20036;-68
2023/09/04 02:03:03;;;;;;;11.48;10.35;;;;;;;10.36;100.00;102647.34;4878985;29;20196;-68
2023/09/04 02:05:29;;;;;;;11.48;10.40;;;;;;;10.45;100.00;102651.84;4844674;29;20132;-66
2023/09/04 02:07:54;;;;;;;13.02;11.73;;;;;;;10.40;100.00;102643.03;4844377;29;20154;-66
2023/09/04 02:10:22;;;;;;;11.77;10.63;;;;;;;10.48;100.00;102643.19;4845832;29;20127;-66
2023/09/04 02:12:48;;;;;;;12.73;11.63;;;;;;;10.56;100.00;102652.06;4860511;29;20049;-66
2023/09/04 02:15:15;;;;;;;11.40;10.40;;;;;;;10.44;100.00;102651.84;4859772;29;20029;-66
2023/09/04 02:17:40;;;;;;;11.25;10.25;;;;;;;10.35;100.00;102645.56;4863384;29;20100;-68
2023/09/04 02:20:06;;;;;;;12.38;11.27;;;;;;;10.18;100.00;102637.34;4878251;29;20037;-67
2023/09/04 02:22:32;;;;;;;11.13;10.02;;;;;;;10.22;100.00;102633.94;4847494;29;20131;-66
2023/09/04 02:24:57;;;;;;;9.52;8.73;;;;;;;10.30;100.00;102627.97;4862913;29;20033;-66
2023/09/04 02:27:23;;;;;;;19.80;10.32;;;;;;;9.95;100.00;102629.06;4861196;29;20044;-66
2023/09/04 02:29:48;;;;;;;217.73;20.60;;;;;;;10.03;100.00;102632.72;4858711;29;20048;-66
2023/09/04 02:32:14;;;;;;;10.85;9.90;;;;;;;10.02;100.00;102630.94;4878405;29;20032;-66
2023/09/04 02:34:40;;;;;;;10.10;9.20;;;;;;;10.17;100.00;102630.38;4843693;29;20124;-66
2023/09/04 02:37:06;;;;;;;14.88;11.88;;;;;;;10.17;100.00;102637.31;4859153;29;20060;-66
2023/09/04 02:39:31;;;;;;;13.45;12.20;;;;;;;10.18;100.00;102632.13;4847156;29;20041;-66
2023/09/04 02:41:56;;;;;;;11.32;9.60;;;;;;;10.04;100.00;102630.97;4862862;29;20056;-66
2023/09/04 02:44:22;;;;;;;11.27;10.23;;;;;;;10.14;100.00;102635.56;4855619;29;20052;-66
2023/09/04 02:46:47;;;;;;;13.02;11.73;;;;;;;10.18;100.00;102633.88;4854384;29;20128;-66
2023/09/04 02:49:13;;;;;;;14.25;12.90;;;;;;;10.28;100.00;102629.69;4830567;29;20041;-66
2023/09/04 02:51:38;;;;;;;12.20;11.10;;;;;;;10.24;100.00;102631.34;4842927;29;20050;-66
2023/09/04 02:54:03;;;;;;;9.77;8.82;;;;;;;10.06;100.00;102629.28;4848887;29;20099;-66
2023/09/04 02:56:29;;;;;;;12.30;8.65;;;;;;;9.93;100.00;102630.78;4875050;29;20072;-66
2023/09/04 02:58:54;;;;;;;11.32;10.32;;;;;;;10.05;100.00;102628.38;4858032;29;20037;-66
2023/09/04 03:01:20;;;;;;;9.88;8.98;;;;;;;10.06;100.00;102624.91;4855246;29;20043;-66
2023/09/04 03:03:46;;;;;;;10.05;9.10;;;;;;;10.11;100.00;102624.13;4859180;29;20025;-66
2023/09/04 03:06:12;;;;;;;15.63;14.13;;;;;;;10.25;100.00;102627.88;4859026;29;20033;-66
2023/09/04 03:08:40;;;;;;;21.40;19.20;;;;;;;10.43;100.00;102630.00;4862048;29;20489;-66
2023/09/04 03:11:10;;;;;;;14.50;12.98;;;;;;;10.26;100.00;102632.28;4877945;29;20036;-66
2023/09/04 03:13:37;;;;;;;21.70;19.60;;;;;;;10.59;100.00;102620.66;4845019;29;20097;-66
2023/09/04 03:16:05;;;;;;;21.42;19.23;;;;;;;10.65;100.00;102620.75;4862053;29;20053;-66
2023/09/04 03:18:30;;;;;;;23.27;21.08;;;;;;;10.75;100.00;102622.66;4877517;29;20027;-66
2023/09/04 03:20:56;;;;;;;25.17;22.67;;;;;;;10.87;100.00;102615.84;4843847;29;20482;-66
2023/09/04 03:23:21;;;;;;;27.52;24.48;;;;;;;11.02;100.00;102608.22;4857526;29;20557;-66
2023/09/04 03:25:47;;;;;;;25.02;22.50;;;;;;;11.02;100.00;102595.09;4843535;29;20398;-66
2023/09/04 03:28:14;;;;;;;24.33;22.02;;;;;;;11.06;100.00;102604.78;4861519;29;20143;-66
2023/09/04 03:30:40;;;;;;;26.38;23.70;;;;;;;11.16;100.00;102602.28;4855760;29;20379;-66
2023/09/04 03:33:05;;;;;;;24.42;22.08;;;;;;;11.16;100.00;102600.53;4842593;29;20047;-66
2023/09/04 03:35:30;;;;;;;24.80;22.23;;;;;;;11.20;100.00;102593.59;4846585;29;20048;-66
2023/09/04 03:37:56;;;;;;;24.23;22.00;;;;;;;11.24;100.00;102591.00;4859175;29;20454;-66
2023/09/04 03:40:23;;;;;;;23.42;21.23;;;;;;;11.22;100.00;102592.75;4836575;29;20446;-66
2023/09/04 03:42:49;;;;;;;25.63;23.08;;;;;;;11.22;100.00;102591.84;4860059;29;20619;-66
2023/09/04 03:45:14;;;;;;;24.88;22.48;;;;;;;11.31;100.00;102596.38;4857305;29;20131;-66
2023/09/04 03:47:41;;;;;;;21.75;19.58;;;;;;;11.27;100.00;102596.28;4861181;29;20033;-66
2023/09/04 03:50:10;;;;;;;23.20;20.75;;;;;;;11.32;100.00;102592.84;4845904;29;20434;-67
2023/09/04 03:52:35;;;;;;;22.75;20.60;;;;;;;11.31;100.00;102596.38;4876952;29;20116;-66
2023/09/04 03:55:01;;;;;;;23.08;20.90;;;;;;;11.37;100.00;102591.19;4861182;29;20359;-67
2023/09/04 03:57:27;;;;;;;23.67;21.48;;;;;;;11.41;100.00;102585.13;4847041;29;20040;-66
2023/09/04 03:59:53;;;;;;;23.15;20.95;;;;;;;11.39;100.00;102582.47;4842535;29;20037;-66
2023/09/04 04:02:18;;;;;;;24.60;22.10;;;;;;;11.39;100.00;102578.94;4856668;29;20064;-66
2023/09/04 04:04:43;;;;;;;23.45;21.25;;;;;;;11.49;100.00;102574.69;4846186;29;20041;-66
2023/09/04 04:07:09;;;;;;;23.00;20.77;;;;;;;11.40;100.00;102578.97;4845842;29;20044;-67
2023/09/04 04:09:35;;;;;;;23.55;21.35;;;;;;;11.48;100.00;102573.84;4851889;29;20029;-66
2023/09/04 04:12:01;;;;;;;23.48;21.33;;;;;;;11.47;100.00;102577.31;4842907;29;20387;-66
2023/09/04 04:14:26;;;;;;;24.35;21.95;;;;;;;11.49;100.00;102577.31;4856154;29;20037;-66
2023/09/04 04:16:51;;;;;;;23.38;21.10;;;;;;;11.44;100.00;102569.41;4858257;29;20037;-67
2023/09/04 04:19:19;;;;;;;22.98;20.60;;;;;;;11.27;100.00;102569.19;4860866;29;20561;-66
2023/09/04 04:21:44;;;;;;;23.70;21.50;;;;;;;11.36;100.00;102571.91;4837737;29;20029;-67
2023/09/04 04:24:10;;;;;;;23.38;21.08;;;;;;;11.39;100.00;102578.94;4844870;29;20033;-66
2023/09/04 04:26:35;;;;;;;24.27;22.08;;;;;;;11.40;100.00;102576.34;4861111;29;20037;-66
2023/09/04 04:29:00;;;;;;;23.25;21.10;;;;;;;11.36;100.00;102569.28;4857559;29;20033;-66
2023/09/04 04:31:26;;;;;;;22.75;20.60;;;;;;;11.35;100.00;102571.91;4844276;29;20033;-66
2023/09/04 04:33:51;;;;;;;23.05;20.60;;;;;;;11.35;100.00;102567.53;4876047;29;20084;-66
2023/09/04 04:36:17;;;;;;;22.42;20.23;;;;;;;11.34;100.00;102573.66;4858159;29;20522;-66
2023/09/04 04:38:42;;;;;;;22.50;20.40;;;;;;;11.23;100.00;102570.91;4844160;29;20057;-66
2023/09/04 04:41:07;;;;;;;22.92;20.75;;;;;;;11.29;100.00;102575.31;4860564;29;20049;-66
2023/09/04 04:43:33;;;;;;;22.05;20.05;;;;;;;11.26;100.00;102580.53;4837622;29;20038;-66
2023/09/04 04:45:58;;;;;;;23.85;21.60;;;;;;;11.33;100.00;102585.00;4859551;29;20525;-66
2023/09/04 04:48:24;;;;;;;22.60;20.60;;;;;;;11.39;100.00;102590.34;4830867;29;20021;-67
2023/09/04 04:50:49;;;;;;;22.98;20.67;;;;;;;11.33;100.00;102578.88;4839563;29;20038;-66
2023/09/04 04:53:15;;;;;;;22.35;20.30;;;;;;;11.27;100.00;102580.56;4844552;29;20051;-67
2023/09/04 04:55:40;;;;;;;22.33;20.33;;;;;;;11.29;100.00;102583.19;4854063;29;20030;-68
2023/09/04 04:58:06;;;;;;;22.05;20.02;;;;;;;11.26;100.00;102577.91;4855293;29;20029;-68
2023/09/04 05:00:31;;;;;;;23.00;20.95;;;;;;;11.36;100.00;102569.28;4834403;29;20021;-68
2023/09/04 05:02:57;;;;;;;23.40;21.20;;;;;;;11.38;100.00;102569.34;4862627;29;20610;-68
2023/09/04 05:05:22;;;;;;;23.08;20.90;;;;;;;11.40;100.00;102570.22;4841913;29;20046;-68
2023/09/04 05:07:48;;;;;;;22.73;20.45;;;;;;;11.43;100.00;102565.00;4855562;29;20044;-68
2023/09/04 05:10:13;;;;;;;22.08;20.08;;;;;;;11.48;100.00;102557.19;4878141;29;20040;-68
2023/09/04 05:12:39;;;;;;;21.67;19.58;;;;;;;11.54;100.00;102565.16;4869955;29;20390;-68
2023/09/04 05:15:07;;;;;;;21.95;19.95;;;;;;;11.55;100.00;102556.38;4848170;29;20033;-68
2023/09/04 05:17:32;;;;;;;20.77;18.80;;;;;;;11.60;100.00;102554.72;4864482;29;20037;-68
2023/09/04 05:19:58;;;;;;;20.50;18.50;;;;;;;11.70;100.00;102559.19;4843718;29;20048;-69
2023/09/04 05:22:23;;;;;;;21.00;19.05;;;;;;;11.79;100.00;102559.31;4849470;29;20055;-70
2023/09/04 05:24:49;;;;;;;20.48;18.52;;;;;;;11.86;100.00;102564.63;4862631;29;20036;-70
2023/09/04 05:27:15;;;;;;;21.00;19.13;;;;;;;11.99;100.00;102568.28;4849941;29;20051;-68
2023/09/04 05:29:40;;;;;;;20.15;18.17;;;;;;;12.02;100.00;102568.31;4857932;29;20037;-66
2023/09/04 05:32:06;;;;;;;20.15;18.05;;;;;;;12.22;100.00;102563.25;4844821;29;20043;-66
2023/09/04 05:34:31;;;;;;;18.63;16.73;;;;;;;12.39;100.00;102560.78;4863224;29;20037;-66
2023/09/04 05:36:57;;;;;;;18.92;17.13;;;;;;;12.58;100.00;102567.03;4844824;29;20049;-68
2023/09/04 05:39:24;;;;;;;18.58;16.67;;;;;;;12.74;100.00;102558.41;4857832;29;20131;-68
2023/09/04 05:41:50;;;;;;;18.55;16.80;;;;;;;12.90;100.00;102558.47;4846339;29;20040;-68
2023/09/04 05:44:15;;;;;;;18.05;16.25;;;;;;;13.02;100.00;102568.22;4830021;29;20553;-68
2023/09/04 05:46:41;;;;;;;17.27;15.65;;;;;;;13.13;100.00;102574.41;4850156;29;20496;-68
2023/09/04 05:49:06;;;;;;;17.67;15.82;;;;;;;13.23;100.00;102570.06;4847797;29;20029;-68
2023/09/04 05:51:32;;;;;;;17.42;15.70;;;;;;;13.33;100.00;102572.78;4847933;29;20037;-68
2023/09/04 05:53:57;;;;;;;16.83;15.20;;;;;;;13.49;100.00;102580.78;4860057;29;20040;-68
2023/09/04 05:56:22;;;;;;;16.58;14.98;;;;;;;13.72;100.00;102583.47;4860873;29;20041;-68
2023/09/04 05:58:50;;;;;;;16.30;14.65;;;;;;;13.90;100.00;102581.75;4862295;29;20036;-68
2023/09/04 06:01:16;;;;;;;17.50;14.68;;;;;;;14.08;100.00;102586.19;4859727;29;20029;-68
2023/09/04 06:03:43;;;;;;;15.82;14.27;;;;;;;14.30;100.00;102592.38;4844536;29;20033;-68
2023/09/04 06:06:09;;;;;;;16.17;14.50;;;;;;;14.58;100.00;102584.44;4863107;29;20053;-68
2023/09/04 06:08:35;;;;;;;15.38;13.77;;;;;;;15.40;100.00;102591.34;4834359;29;20492;-68
2023/09/04 06:11:04;;;;;;;14.80;12.90;;;;;;;16.86;90.95;102590.34;4867982;29;20100;-68
2023/09/04 06:13:33;;;;;;;14.70;11.35;;;;;;;18.00;84.90;102597.81;4865803;29;20017;-68
2023/09/04 06:15:59;;;;;;;17.42;11.27;;;;;;;18.15;80.79;102601.13;4846624;29;20037;-68
2023/09/04 06:18:28;;;;;;;13.27;11.13;;;;;;;18.05;80.89;102599.53;4865672;29;20027;-68
2023/09/04 06:20:53;;;;;;;10.93;9.82;;;;;;;18.17;81.87;102602.88;4860990;29;20033;-68
2023/09/04 06:23:19;;;;;;;12.52;10.68;;;;;;;18.34;79.24;102602.56;4860279;29;20040;-68
2023/09/04 06:25:46;;;;;;;10.38;9.27;;;;;;;19.14;76.20;102588.81;4843802;29;20127;-68
2023/09/04 06:28:12;;;;;;;11.48;9.93;;;;;;;19.67;75.01;102585.94;4862000;29;20053;-68
2023/09/04 06:30:38;;;;;;;15.40;9.35;;;;;;;20.50;70.81;102580.41;4843004;29;20124;-68
2023/09/04 06:33:04;;;;;;;15.93;9.95;;;;;;;21.31;69.41;102581.81;4862273;29;20124;-68
2023/09/04 06:35:30;;;;;;;12.02;8.93;;;;;;;21.63;67.64;102583.53;4846071;29;20386;-68
2023/09/04 06:37:56;;;;;;;14.05;8.88;;;;;;;21.84;64.07;102586.44;4882948;29;20053;-68
2023/09/04 06:40:24;;;;;;;14.40;8.77;;;;;;;22.49;64.56;102586.09;4843499;29;20446;-68
2023/09/04 06:42:49;;;;;;;12.68;8.50;;;;;;;22.13;63.60;102586.38;4846228;29;20045;-68
2023/09/04 06:45:15;;;;;;;9.48;7.65;;;;;;;23.00;59.99;102575.41;4841821;29;20036;-69
2023/09/04 06:47:41;;;;;;;10.80;7.65;;;;;;;23.75;60.86;102579.72;4847131;29;20032;-68
2023/09/04 06:50:08;;;;;;;8.60;7.28;;;;;;;23.42;57.33;102576.53;4873187;29;20045;-68
2023/09/04 06:52:34;;;;;;;8.68;7.40;;;;;;;22.32;59.77;102580.44;4862662;29;20456;-68
2023/09/04 06:55:00;;;;;;;11.15;8.25;;;;;;;21.45;64.17;102580.47;4862983;29;20040;-68
2023/09/04 06:57:26;;;;;;;10.95;7.85;;;;;;;21.10;66.36;102571.72;4844594;29;20037;-68
2023/09/04 06:59:52;;;;;;;10.25;8.10;;;;;;;21.36;65.03;102574.53;4846377;29;20367;-68
2023/09/04 07:02:19;;;;;;;9.27;7.53;;;;;;;20.89;65.81;102565.19;4831705;29;20043;-70
2023/09/04 07:04:45;;;;;;;9.43;8.10;;;;;;;21.35;66.62;102579.00;4859648;29;20029;-68
2023/09/04 07:07:10;;;;;;;9.93;7.30;;;;;;;22.42;63.95;102579.22;4847877;29;20128;-67
2023/09/04 07:09:36;;;;;;;11.13;7.72;;;;;;;23.74;57.42;102577.97;4862366;29;20493;-67
2023/09/04 07:12:03;;;;;;;8.02;7.15;;;;;;;24.06;57.64;102567.78;4847479;29;20409;-67
2023/09/04 07:14:28;;;;;;;7.70;6.90;;;;;;;24.91;54.12;102577.56;4845456;29;20124;-67
2023/09/04 07:16:54;;;;;;;10.77;7.78;;;;;;;24.41;55.13;102573.47;4846975;29;20059;-67
2023/09/04 07:19:19;;;;;;;8.55;6.75;;;;;;;25.00;57.15;102566.44;4861307;29;20032;-67
2023/09/04 07:21:44;;;;;;;8.88;7.35;;;;;;;23.64;57.95;102566.75;4861046;29;20080;-67
2023/09/04 07:24:10;;;;;;;8.55;7.18;;;;;;;22.86;60.50;102564.34;4859142;29;20371;-67
2023/09/04 07:26:36;;;;;;;12.18;7.68;;;;;;;22.36;63.45;102566.09;4845612;29;20045;-67
2023/09/04 07:29:02;;;;;;;9.38;8.07;;;;;;;21.55;65.46;102564.22;4861048;29;20029;-67
2023/09/04 07:31:28;;;;;;;8.43;7.63;;;;;;;21.25;66.10;102562.41;4831684;29;20044;-67
2023/09/04 07:33:53;;;;;;;8.70;7.90;;;;;;;20.71;70.85;102563.91;4862170;29;20115;-67
2023/09/04 07:36:19;;;;;;;9.30;8.13;;;;;;;20.37;69.17;102571.88;4847541;29;20033;-66
2023/09/04 07:38:45;;;;;;;9.13;8.23;;;;;;;20.26;71.17;102569.50;4860579;29;20033;-67
2023/09/04 07:41:12;;;;;;;10.43;8.30;;;;;;;20.17;72.46;102570.59;4877359;29;20039;-67
2023/09/04 07:43:37;;;;;;;8.98;8.18;;;;;;;20.13;73.71;102570.69;4845666;29;20033;-67
2023/09/04 07:46:04;;;;;;;10.20;9.07;;;;;;;20.11;73.25;102572.53;4861945;29;20045;-67
2023/09/04 07:48:29;;;;;;;10.15;9.02;;;;;;;20.27;73.80;102567.69;4861595;29;20109;-67
2023/09/04 07:50:56;;;;;;;9.65;8.27;;;;;;;20.72;71.37;102572.78;4848725;29;20132;-66
2023/09/04 07:53:23;;;;;;;11.40;8.80;;;;;;;20.54;72.74;102574.09;4877372;29;20037;-67
2023/09/04 07:55:51;;;;;;;9.88;8.88;;;;;;;20.25;72.15;102575.72;4847310;29;20116;-67
2023/09/04 07:58:16;;;;;;;10.52;8.88;;;;;;;20.28;72.07;102562.34;4858443;29;20037;-67
2023/09/04 08:00:46;;;;;;;9.38;8.40;;;;;;;20.31;73.36;102572.03;4860866;29;20036;-67
2023/09/04 08:03:13;;;;;;;10.60;8.85;;;;;;;20.12;74.55;102576.94;4861686;29;20025;-66
2023/09/04 08:05:40;;;;;;;9.85;8.75;;;;;;;20.27;73.64;102565.03;4843709;29;20132;-67
2023/09/04 08:08:09;;;;;;;10.07;9.07;;;;;;;20.40;74.99;102564.69;4868729;29;20057;-67
2023/09/04 08:10:45;;;;;;;12.83;8.70;;;;;;;20.44;74.06;102560.16;4859022;29;20049;-67
2023/09/04 08:13:13;;;;;;;8.98;8.07;;;;;;;20.24;73.58;102560.66;4872850;29;20117;-67
2023/09/04 08:15:40;;;;;;;9.10;8.20;;;;;;;20.11;73.04;102559.22;4859798;29;20041;-67
2023/09/04 08:18:07;;;;;;;9.80;8.73;;;;;;;20.02;73.44;102563.84;4846530;29;20065;-67
2023/09/04 08:20:33;;;;;;;10.07;8.57;;;;;;;19.92;72.72;102559.66;4853451;29;20029;-67
2023/09/04 08:22:58;;;;;;;9.23;8.32;;;;;;;20.08;75.17;102553.06;4876443;29;20061;-67
2023/09/04 08:25:24;;;;;;;9.25;8.35;;;;;;;20.19;74.43;102557.25;4858305;29;20029;-66
2023/09/04 08:27:49;;;;;;;9.65;8.75;;;;;;;20.24;74.26;102555.34;4838411;29;20093;-66
2023/09/04 08:30:15;;;;;;;9.18;7.85;;;;;;;20.41;72.66;102561.13;4843392;29;20097;-67
2023/09/04 08:32:40;;;;;;;9.95;8.20;;;;;;;20.33;71.75;102554.22;4860471;29;20033;-66
2023/09/04 08:35:06;;;;;;;9.68;8.43;;;;;;;20.52;73.68;102551.97;4864516;29;20050;-66
2023/09/04 08:37:31;;;;;;;9.20;8.20;;;;;;;20.62;71.78;102550.81;4846094;29;20080;-66
2023/09/04 08:39:58;;;;;;;9.23;7.70;;;;;;;20.67;75.38;102556.91;4864816;29;20140;-67
2023/09/04 08:42:23;;;;;;;9.60;7.20;;;;;;;20.61;69.59;102562.38;4864408;29;20049;-67
2023/09/04 08:44:50;;;;;;;8.57;6.35;;;;;;;20.72;72.34;102547.00;4844173;29;20032;-66
2023/09/04 08:47:19;;;;;;;9.82;7.43;;;;;;;20.84;71.84;102543.13;4848173;29;20036;-67
2023/09/04 08:49:47;;;;;;;7.88;7.05;;;;;;;20.84;70.85;102553.78;4865007;29;20032;-67
2023/09/04 08:52:13;;;;;;;9.05;6.68;;;;;;;20.75;69.00;102546.91;4861261;29;20033;-67
2023/09/04 08:54:40;;;;;;;10.02;6.05;;;;;;;20.84;71.08;102556.44;4861796;29;20509;-69
2023/09/04 08:57:05;;;;;;;8.00;6.32;;;;;;;20.83;70.33;102543.19;4864601;29;20036;-69
2023/09/04 08:59:31;;;;;;;7.53;6.05;;;;;;;20.84;69.32;102550.25;4864571;29;20025;-69
2023/09/04 09:02:00;;;;;;;7.82;6.28;;;;;;;21.02;70.96;102555.06;4864353;29;20060;-69
2023/09/04 09:04:26;;;;;;;6.43;5.80;;;;;;;21.25;72.46;102553.53;4879279;29;20036;-69
2023/09/04 09:06:53;;;;;;;7.53;6.72;;;;;;;21.17;70.22;102548.41;4849205;29;20497;-69
2023/09/04 09:09:20;;;;;;;7.45;6.75;;;;;;;21.05;69.50;102557.66;4864520;29;20036;-69
2023/09/04 09:11:46;;;;;;;10.02;7.35;;;;;;;20.97;71.34;102546.31;4879839;29;20037;-70
2023/09/04 09:14:13;;;;;;;9.27;7.40;;;;;;;21.09;72.13;102553.97;4831088;29;20056;-69
2023/09/04 09:16:38;;;;;;;9.00;6.75;;;;;;;21.10;70.61;102544.19;4862923;29;20043;-69
2023/09/04 09:19:04;;;;;;;8.73;6.57;;;;;;;21.08;68.66;102538.91;4862294;29;20470;-70
2023/09/04 09:21:32;;;;;;;7.72;6.18;;;;;;;21.13;69.62;102535.22;4864137;29;20040;-69
2023/09/04 09:24:08;;;;;;;7.10;5.93;;;;;;;21.09;68.54;102534.47;4879675;29;20029;-68
2023/09/04 09:26:33;;;;;;;8.38;6.45;;;;;;;21.07;68.10;102537.13;4878307;29;20021;-69
2023/09/04 09:29:02;;;;;;;7.00;6.28;;;;;;;21.19;68.74;102535.94;4846350;29;20033;-68
2023/09/04 09:31:28;;;;;;;7.68;6.20;;;;;;;21.32;67.80;102540.88;4861438;29;20033;-69
2023/09/04 09:33:55;;;;;;;6.38;5.78;;;;;;;21.38;65.77;102546.91;4847210;29;20044;-68
2023/09/04 09:36:20;;;;;;;6.25;5.32;;;;;;;21.43;66.44;102539.66;4859763;29;20038;-69
2023/09/04 09:38:46;;;;;;;8.32;5.40;;;;;;;21.72;71.03;102545.00;4847503;29;20049;-68
2023/09/04 09:41:14;;;;;;;6.60;5.20;;;;;;;21.80;69.23;102541.19;4853387;29;20034;-68
2023/09/04 09:43:43;;;;;;;5.97;5.25;;;;;;;21.93;66.04;102548.78;4862690;29;20123;-68
2023/09/04 09:46:09;;;;;;;6.90;5.32;;;;;;;22.07;67.87;102546.53;4845949;29;20096;-68
2023/09/04 09:48:36;;;;;;;6.95;5.20;;;;;;;22.19;65.69;102542.59;4879181;29;20104;-70
2023/09/04 09:51:06;;;;;;;6.50;4.75;;;;;;;22.14;63.68;102537.41;4849040;29;20136;-68
2023/09/04 09:53:51;;;;;;;6.40;5.15;;;;;;;22.25;65.71;102538.84;4854754;29;20033;-69
2023/09/04 09:56:18;;;;;;;6.57;4.70;;;;;;;22.37;64.67;102533.13;4869644;29;20029;-68
2023/09/04 09:58:49;;;;;;;5.47;4.70;;;;;;;22.35;63.17;102526.09;4861566;29;20135;-68
2023/09/04 10:01:17;;;;;;;5.70;4.22;;;;;;;22.49;63.71;102530.00;4878618;29;20033;-69
2023/09/04 10:03:44;;;;;;;5.68;4.50;;;;;;;22.60;65.59;102523.44;4863409;29;20037;-68
2023/09/04 10:06:21;;;;;;;6.10;4.30;;;;;;;22.60;63.08;102518.09;4863713;29;20028;-68
2023/09/04 10:08:49;;;;;;;5.55;4.88;;;;;;;22.71;63.98;102513.19;4878101;29;20048;-68
2023/09/04 10:11:16;;;;;;;7.25;5.57;;;;;;;22.80;62.04;102515.56;4846050;29;20037;-68
2023/09/04 10:14:04;;;;;;;5.10;4.60;;;;;;;22.94;63.52;102516.81;4878023;29;20021;-68
2023/09/04 10:16:40;;;;;;;5.35;4.50;;;;;;;22.92;62.62;102513.34;4878236;29;20128;-69
2023/09/04 10:19:09;;;;;;;4.43;3.70;;;;;;;23.03;63.69;102511.16;4863468;29;20037;-69
2023/09/04 10:21:40;;;;;;;4.25;3.72;;;;;;;23.02;62.88;102504.06;4861515;29;20124;-69
2023/09/04 10:24:12;;;;;;;5.50;3.25;;;;;;;23.04;57.29;102506.66;4878373;29;20124;-69
2023/09/04 10:27:19;;;;;;;5.68;2.90;;;;;;;23.11;57.27;102517.09;4878421;29;20111;-70
2023/09/04 10:29:51;;;;;;;5.35;3.45;;;;;;;22.98;56.31;102508.63;4857320;29;20037;-69
2023/09/04 10:32:17;;;;;;;3.92;3.33;;;;;;;23.07;56.94;102501.19;4863812;29;20044;-69
2023/09/04 10:34:43;;;;;;;3.22;2.92;;;;;;;23.08;55.50;102514.50;4846771;29;20033;-69
2023/09/04 10:37:11;;;;;;;4.22;3.15;;;;;;;23.09;57.34;102504.69;4878893;29;20131;-68
2023/09/04 10:39:39;;;;;;;3.30;2.75;;;;;;;23.20;57.64;102502.50;4847814;29;20083;-68
2023/09/04 10:42:05;;;;;;;5.15;2.95;;;;;;;23.34;56.91;102491.25;4863225;29;20100;-68
2023/09/04 10:44:44;;;;;;;4.45;2.97;;;;;;;23.47;56.88;102499.66;4858872;29;20401;-69
2023/09/04 10:47:11;;;;;;;5.38;3.10;;;;;;;23.38;55.89;102497.38;4883355;29;20036;-69
2023/09/04 10:49:36;;;;;;;6.22;3.17;;;;;;;23.32;56.60;102493.13;4843796;29;20025;-68
2023/09/04 10:52:02;;;;;;;4.45;3.33;;;;;;;23.39;57.87;102483.94;4848137;29;20053;-69
2023/09/04 10:54:28;;;;;;;4.85;3.30;;;;;;;23.41;58.25;102481.19;4845991;29;20032;-69
2023/09/04 10:56:56;;;;;;;4.85;3.42;;;;;;;23.45;57.89;102485.50;4853967;29;20045;-69
2023/09/04 10:59:22;;;;;;;4.70;3.25;;;;;;;23.48;57.45;102482.69;4861412;29;20029;-70
2023/09/04 11:01:48;;;;;;;6.63;3.35;;;;;;;23.62;58.49;102476.75;4861800;29;20036;-69
2023/09/04 11:04:26;;;;;;;5.30;4.07;;;;;;;23.63;58.56;102479.41;4850060;29;20037;-71
2023/09/04 11:07:20;;;;;;;4.75;3.92;;;;;;;23.63;58.84;102470.47;4875371;29;20111;-70
2023/09/04 11:10:07;;;;;;;6.13;4.60;;;;;;;23.69;58.68;102468.44;4877701;29;20032;-70
2023/09/04 11:12:37;;;;;;;5.10;3.92;;;;;;;23.51;57.22;102466.50;4852663;29;20049;-70
2023/09/04 11:15:13;;;;;;;;;;;;;;;23.73;58.18;102463.81;4862054;29;20036;-70